Time;durP1;ratioP1;P1;durP2;ratioP2;P2;SDS_P1;SDS_P2;PMS_P1;PMS_P2;Temp;Humidity;BMP_temperature;BMP_pressure;BME280_temperature;BME280_humidity;BME280_pressure;Samples;Min_cycle;Max_cycle;Signal;HPM_P1;HPM_P2
2022/05/23 00:01:39;;;;;;;;;;;;;;;23.74;86.08;98275.81;5026576;28;19925;-38
2022/05/23 00:04:04;;;;;;;;;;;;;;;23.63;86.39;98273.38;5030971;28;19940;-38
2022/05/23 00:06:29;;;;;;;;;;;;;;;23.58;86.05;98270.34;5025458;28;20065;-38
2022/05/23 00:08:55;;;;;;;;;;;;;;;23.56;86.94;98262.63;5026603;28;20036;-38
2022/05/23 00:11:20;;;;;;;;;;;;;;;23.60;86.80;98255.25;5026601;28;20003;-38
2022/05/23 00:13:46;;;;;;;;;;;;;;;23.62;87.00;98248.06;5026050;28;19987;-38
2022/05/23 00:16:14;;;;;;;;;;;;;;;23.68;86.57;98229.06;5025830;28;19921;-38
2022/05/23 00:18:39;;;;;;;;;;;;;;;23.71;86.55;98218.22;5008918;28;20413;-38
2022/05/23 00:21:05;;;;;;;;;;;;;;;23.65;86.94;98197.81;5024376;28;19955;-38
2022/05/23 00:23:30;;;;;;;;;;;;;;;21.81;91.93;98194.25;5022574;28;19941;-38
2022/05/23 00:25:55;;;;;;;;;;;;;;;21.55;97.06;98189.56;5024914;28;19921;-38
2022/05/23 00:28:20;;;;;;;;;;;;;;;21.43;95.23;98201.16;5027858;28;20035;-38
2022/05/23 00:30:46;;;;;;;;;;;;;;;23.10;89.29;98192.69;5028094;28;20008;-38
2022/05/23 00:35:55;;;;;;;;;;;;;;;23.36;85.29;98193.63;5028298;28;19975;-38
2022/05/23 00:38:20;;;;;;;;;;;;;;;23.23;84.42;98187.91;5026469;28;19921;-38
2022/05/23 00:40:50;;;;;;;;;;;;;;;22.16;87.35;98198.03;5008212;28;20386;-38
2022/05/23 00:43:17;;;;;;;;;;;;;;;21.71;90.01;98195.09;5025611;28;20044;-38
2022/05/23 00:45:50;;;;;;;;;;;;;;;21.98;89.63;98198.75;5006422;28;19999;-38
2022/05/23 00:48:16;;;;;;;;;;;;;;;21.25;93.83;98201.78;5028414;28;19921;-38
2022/05/23 00:50:43;;;;;;;;;;;;;;;21.62;90.99;98192.47;5024329;28;19963;-38
2022/05/23 00:53:09;;;;;;;;;;;;;;;21.85;89.60;98182.50;5013346;28;19955;-38
2022/05/23 00:55:40;;;;;;;;;;;;;;;21.03;90.46;98178.50;5028241;28;19921;-38
2022/05/23 00:58:11;;;;;;;;;;;;;;;21.52;93.22;98174.94;5015514;28;19999;-37
2022/05/23 01:00:36;;;;;;;;;;;;;;;21.17;94.22;98182.50;5014277;28;20216;-38
2022/05/23 01:03:03;;;;;;;;;;;;;;;20.78;95.09;98191.13;5029822;28;19925;-38
2022/05/23 01:05:28;;;;;;;;;;;;;;;20.93;93.63;98193.34;5034674;28;20008;-38
2022/05/23 01:07:54;;;;;;;;;;;;;;;20.86;92.50;98188.63;5019902;28;19927;-38
2022/05/23 01:10:19;;;;;;;;;;;;;;;21.19;92.43;98184.03;5037513;28;20416;-38
2022/05/23 01:12:44;;;;;;;;;;;;;;;22.57;85.92;98175.00;5036822;28;19920;-38
2022/05/23 01:15:18;;;;;;;;;;;;;;;22.68;82.84;98182.69;5033450;28;20012;-38
2022/05/23 01:17:43;;;;;;;;;;;;;;;21.65;84.64;98176.47;5034638;28;19980;-38
2022/05/23 01:20:09;;;;;;;;;;;;;;;22.46;83.72;98178.63;5028366;28;20004;-38
2022/05/23 01:22:54;;;;;;;;;;;;;;;22.49;84.35;98173.94;5028584;28;20715;-38
2022/05/23 01:25:46;;;;;;;;;;;;;;;21.89;86.38;98165.53;5019625;28;19964;-38
2022/05/23 01:28:12;;;;;;;;;;;;;;;21.70;88.62;98172.47;5024752;28;20590;-38
2022/05/23 01:30:37;;;;;;;;;;;;;;;20.92;89.91;98173.38;5032255;28;19932;-38
2022/05/23 01:33:03;;;;;;;;;;;;;;;21.38;89.33;98166.66;5029681;28;19921;-38
2022/05/23 01:35:28;;;;;;;;;;;;;;;21.40;89.03;98169.97;5010612;28;19921;-38
2022/05/23 01:37:53;;;;;;;;;;;;;;;20.71;90.78;98176.91;5028704;28;19921;-38
2022/05/23 01:40:19;;;;;;;;;;;;;;;20.86;92.57;98167.69;5029056;28;19921;-38
2022/05/23 01:42:44;;;;;;;;;;;;;;;20.83;94.06;98165.38;5008801;28;19931;-38
2022/05/23 01:45:11;;;;;;;;;;;;;;;20.55;94.30;98168.69;5030179;28;20333;-38
2022/05/23 01:47:37;;;;;;;;;;;;;;;20.54;93.65;98167.03;5025614;28;20314;-38
2022/05/23 01:50:02;;;;;;;;;;;;;;;20.61;93.46;98170.81;5014537;28;19921;-38
2022/05/23 01:52:27;;;;;;;;;;;;;;;20.66;95.03;98171.22;5028030;28;19963;-38
2022/05/23 01:54:53;;;;;;;;;;;;;;;20.92;93.95;98155.06;5031087;28;19925;-38
2022/05/23 01:57:18;;;;;;;;;;;;;;;20.78;95.69;98151.88;5028618;28;20537;-38
2022/05/23 02:02:28;;;;;;;;;;;;;;;20.16;99.92;98158.91;5029602;28;21359;-38
2022/05/23 02:04:54;;;;;;;;;;;;;;;20.58;97.32;98155.38;5028947;28;20010;-38
2022/05/23 02:07:19;;;;;;;;;;;;;;;20.30;98.06;98151.66;5028599;28;20636;-38
2022/05/23 02:09:45;;;;;;;;;;;;;;;20.57;95.93;98143.25;5010332;28;19956;-38
2022/05/23 02:12:10;;;;;;;;;;;;;;;21.01;94.97;98136.75;5025533;28;20000;-38
2022/05/23 02:14:36;;;;;;;;;;;;;;;21.07;94.28;98137.97;5029169;28;19974;-37
2022/05/23 02:17:01;;;;;;;;;;;;;;;21.06;93.15;98141.56;5027160;28;19927;-38
2022/05/23 02:19:26;;;;;;;;;;;;;;;20.48;95.26;98148.31;5030083;28;19929;-37
2022/05/23 02:21:52;;;;;;;;;;;;;;;20.98;95.21;98144.03;5013361;28;19951;-38
2022/05/23 02:24:18;;;;;;;;;;;;;;;21.04;95.52;98138.25;5028689;28;19917;-38
2022/05/23 02:26:43;;;;;;;;;;;;;;;21.09;94.80;98136.03;5031132;28;19943;-38
2022/05/23 02:29:10;;;;;;;;;;;;;;;21.04;96.74;98144.31;5031349;28;19925;-38
2022/05/23 02:31:36;;;;;;;;;;;;;;;21.19;95.63;98131.66;5024892;28;19921;-38
2022/05/23 02:34:01;;;;;;;;;;;;;;;21.07;96.00;98124.88;5032692;28;20483;-38
2022/05/23 02:36:26;;;;;;;;;;;;;;;21.72;92.88;98123.34;5029077;28;20556;-38
2022/05/23 02:38:52;;;;;;;;;;;;;;;21.84;92.10;98125.81;5029159;28;21071;-39
2022/05/23 02:41:17;;;;;;;;;;;;;;;20.97;96.79;98121.44;5028856;28;19925;-38
2022/05/23 02:43:42;;;;;;;;;;;;;;;20.01;100.00;98124.44;5028438;28;19963;-38
2022/05/23 02:46:07;;;;;;;;;;;;;;;20.23;100.00;98127.81;5010578;28;19983;-38
2022/05/23 02:48:33;;;;;;;;;;;;;;;19.90;100.00;98121.06;5027664;28;19921;-38
2022/05/23 02:50:58;;;;;;;;;;;;;;;19.93;100.00;98126.84;5030683;28;19924;-38
2022/05/23 02:53:23;;;;;;;;;;;;;;;20.47;100.00;98117.03;5027353;28;20035;-38
2022/05/23 02:55:48;;;;;;;;;;;;;;;20.66;100.00;98108.44;5029294;28;20381;-38
2022/05/23 02:58:14;;;;;;;;;;;;;;;20.57;100.00;98112.72;5028286;28;19948;-38
2022/05/23 03:00:39;;;;;;;;;;;;;;;20.77;99.52;98110.94;5027256;28;19968;-38
2022/05/23 03:03:04;;;;;;;;;;;;;;;20.80;100.00;98100.22;5026842;28;20386;-38
2022/05/23 03:05:31;;;;;;;;;;;;;;;20.52;100.00;98100.94;5023070;28;20286;-38
2022/05/23 03:07:56;;;;;;;;;;;;;;;20.23;100.00;98097.28;5029153;28;19925;-38
2022/05/23 03:10:21;;;;;;;;;;;;;;;20.28;100.00;98091.66;5027786;28;19932;-37
2022/05/23 03:12:47;;;;;;;;;;;;;;;20.71;100.00;98095.81;5025702;28;19921;-37
2022/05/23 03:15:12;;;;;;;;;;;;;;;20.33;100.00;98097.31;5023572;28;19932;-38
2022/05/23 03:17:38;;;;;;;;;;;;;;;21.24;98.67;98103.25;5024200;28;19921;-37
2022/05/23 03:20:03;;;;;;;;;;;;;;;20.81;100.00;98088.78;5026148;28;19948;-38
2022/05/23 03:27:56;;;;;;;;;;;;;;;20.29;100.00;98080.22;5024078;28;20010;-38
2022/05/23 03:30:21;;;;;;;;;;;;;;;20.29;100.00;98074.19;5013691;28;20019;-38
2022/05/23 03:32:47;;;;;;;;;;;;;;;20.37;100.00;98067.34;5021368;28;19932;-38
2022/05/23 03:35:12;;;;;;;;;;;;;;;19.91;100.00;98065.22;5024711;28;19921;-37
2022/05/23 03:37:37;;;;;;;;;;;;;;;20.76;100.00;98062.19;5023826;28;19931;-37
2022/05/23 03:40:05;;;;;;;;;;;;;;;19.85;100.00;98061.38;5025133;28;19927;-37
2022/05/23 03:42:31;;;;;;;;;;;;;;;19.95;100.00;98046.53;5026496;28;19925;-38
2022/05/23 03:44:56;;;;;;;;;;;;;;;19.68;100.00;98048.88;5025137;28;19925;-38
2022/05/23 03:47:21;;;;;;;;;;;;;;;20.31;100.00;98028.63;5024009;28;20397;-38
2022/05/23 03:49:46;;;;;;;;;;;;;;;19.70;100.00;98021.69;5027160;28;20357;-37
2022/05/23 03:52:12;;;;;;;;;;;;;;;19.55;100.00;98010.75;5024485;28;20728;-38
2022/05/23 03:54:37;;;;;;;;;;;;;;;19.26;100.00;98001.94;5027694;28;20459;-38
2022/05/23 03:57:03;;;;;;;;;;;;;;;20.12;100.00;97994.63;5028923;28;20293;-38
2022/05/23 03:59:29;;;;;;;;;;;;;;;20.10;100.00;97997.38;5031505;28;19920;-38
2022/05/23 04:01:56;;;;;;;;;;;;;;;20.09;100.00;98000.09;5026188;28;20440;-37
2022/05/23 04:04:21;;;;;;;;;;;;;;;20.10;100.00;97991.31;5024065;28;20007;-38
2022/05/23 04:06:47;;;;;;;;;;;;;;;20.64;100.00;97990.00;5026678;28;19924;-38
2022/05/23 04:09:12;;;;;;;;;;;;;;;20.81;98.59;97976.25;5027543;28;19925;-38
2022/05/23 04:11:37;;;;;;;;;;;;;;;20.65;100.00;97968.13;5024341;28;20000;-37
2022/05/23 04:14:02;;;;;;;;;;;;;;;20.35;100.00;97969.88;5024102;28;20375;-38
2022/05/23 04:16:29;;;;;;;;;;;;;;;20.61;100.00;97966.75;5027201;28;20012;-38
2022/05/23 04:18:55;;;;;;;;;;;;;;;20.19;100.00;97974.81;5028000;28;19978;-38
2022/05/23 04:21:20;;;;;;;;;;;;;;;20.31;100.00;97970.28;5025529;28;20402;-38
2022/05/23 04:23:46;;;;;;;;;;;;;;;20.51;100.00;97973.75;5024809;28;19935;-37
2022/05/23 04:26:11;;;;;;;;;;;;;;;20.38;100.00;97969.59;5022513;28;19932;-38
2022/05/23 04:28:39;;;;;;;;;;;;;;;20.05;100.00;97968.19;5026045;28;19916;-37
2022/05/23 04:31:04;;;;;;;;;;;;;;;20.47;100.00;97973.19;5015446;28;20034;-38
2022/05/23 04:36:13;;;;;;;;;;;;;;;20.11;100.00;97966.81;5031270;28;19967;-38
2022/05/23 04:38:38;;;;;;;;;;;;;;;20.70;100.00;97954.66;5036794;28;19921;-37
2022/05/23 04:41:06;;;;;;;;;;;;;;;20.44;100.00;97957.78;5035276;28;19921;-38
2022/05/23 04:43:32;;;;;;;;;;;;;;;20.16;100.00;97948.94;5036874;28;19917;-38
2022/05/23 04:45:57;;;;;;;;;;;;;;;20.21;100.00;97957.22;5032129;28;19931;-38
2022/05/23 04:51:06;;;;;;;;;;;;;;;20.79;99.79;97945.97;5032301;28;19999;-38
2022/05/23 04:53:31;;;;;;;;;;;;;;;21.13;98.01;97946.31;5034102;28;20011;-37
2022/05/23 04:55:59;;;;;;;;;;;;;;;20.79;100.00;97941.53;5033325;28;20025;-38
2022/05/23 04:58:24;;;;;;;;;;;;;;;20.98;99.61;97945.09;5032223;28;20468;-38
2022/05/23 05:00:49;;;;;;;;;;;;;;;20.93;98.84;97942.09;5029625;28;20012;-38
2022/05/23 05:03:16;;;;;;;;;;;;;;;20.72;100.00;97940.47;5027747;28;20519;-38
2022/05/23 05:05:41;;;;;;;;;;;;;;;20.66;100.00;97931.38;5014788;28;20468;-38
2022/05/23 05:08:06;;;;;;;;;;;;;;;20.74;100.00;97927.25;5038256;28;19956;-38
2022/05/23 05:10:31;;;;;;;;;;;;;;;20.85;100.00;97927.09;5035567;28;20337;-37
2022/05/23 05:12:57;;;;;;;;;;;;;;;20.69;100.00;97925.03;5034576;28;19916;-37
2022/05/23 05:15:23;;;;;;;;;;;;;;;20.88;100.00;97922.38;5029211;28;19913;-38
2022/05/23 05:17:48;;;;;;;;;;;;;;;21.26;97.52;97912.78;5031593;28;19917;-37
2022/05/23 05:20:14;;;;;;;;;;;;;;;21.11;100.00;97903.72;5029626;28;19917;-37
2022/05/23 05:22:39;;;;;;;;;;;;;;;20.60;100.00;97912.81;5024341;28;19982;-38
2022/05/23 05:25:06;;;;;;;;;;;;;;;21.22;100.00;97900.94;5029079;28;19924;-38
2022/05/23 05:27:31;;;;;;;;;;;;;;;20.91;100.00;97902.13;5027081;28;19917;-38
2022/05/23 05:29:57;;;;;;;;;;;;;;;20.90;100.00;97896.09;5027204;28;19921;-38
2022/05/23 05:32:41;;;;;;;;;;;;;;;20.72;100.00;97903.81;5012410;28;20583;-38
2022/05/23 05:35:09;;;;;;;;;;;;;;;21.49;100.00;97894.13;5027713;28;19924;-38
2022/05/23 05:37:43;;;;;;;;;;;;;;;21.59;100.00;97889.63;5006890;28;19956;-38
2022/05/23 05:40:09;;;;;;;;;;;;;;;22.44;97.13;97877.09;5032841;28;19913;-37
2022/05/23 05:42:38;;;;;;;;;;;;;;;22.63;92.13;97875.25;5034006;28;19928;-38
2022/05/23 05:45:08;;;;;;;;;;;;;;;22.34;95.40;97876.34;5033663;28;19917;-38
2022/05/23 05:47:34;;;;;;;;;;;;;;;22.09;98.44;97873.47;5014085;28;19923;-38
2022/05/23 05:50:00;;;;;;;;;;;;;;;23.12;93.57;97865.91;5031364;28;19939;-38
2022/05/23 05:52:26;;;;;;;;;;;;;;;22.76;95.25;97858.13;5017693;28;19916;-38
2022/05/23 05:54:52;;;;;;;;;;;;;;;22.27;96.47;97855.13;5033072;28;19917;-38
2022/05/23 05:57:17;;;;;;;;;;;;;;;21.59;100.00;97863.44;5038967;28;19927;-38
2022/05/23 05:59:42;;;;;;;;;;;;;;;21.85;100.00;97852.25;5038372;28;19916;-38
2022/05/23 06:02:07;;;;;;;;;;;;;;;21.38;100.00;97860.22;5038047;28;20036;-38
2022/05/23 06:04:34;;;;;;;;;;;;;;;22.17;100.00;97845.66;5036579;28;19917;-38
2022/05/23 06:12:28;;;;;;;;;;;;;;;21.97;100.00;97843.22;5033185;28;19962;-38
2022/05/23 06:14:53;;;;;;;;;;;;;;;21.57;100.00;97857.53;5034514;28;20403;-38
2022/05/23 06:17:18;;;;;;;;;;;;;;;22.68;100.00;97857.25;5033825;28;19913;-38
2022/05/23 06:19:45;;;;;;;;;;;;;;;22.65;99.17;97855.75;5031698;28;19946;-38
2022/05/23 06:22:11;;;;;;;;;;;;;;;22.51;98.73;97862.38;5031809;28;19962;-38
2022/05/23 06:24:36;;;;;;;;;;;;;;;22.89;95.79;97855.06;5032750;28;19959;-38
2022/05/23 06:27:02;;;;;;;;;;;;;;;23.33;93.78;97844.50;5010216;28;19924;-38
2022/05/23 06:29:28;;;;;;;;;;;;;;;23.48;94.46;97849.16;5028869;28;19929;-38
2022/05/23 06:31:53;;;;;;;;;;;;;;;23.71;92.55;97844.94;5031949;28;19971;-38
2022/05/23 06:34:18;;;;;;;;;;;;;;;23.79;94.14;97842.38;5031588;28;20506;-38
2022/05/23 06:36:43;;;;;;;;;;;;;;;24.02;91.91;97841.75;5035097;28;19917;-38
2022/05/23 06:39:09;;;;;;;;;;;;;;;23.87;93.78;97843.38;5036220;28;20023;-38
2022/05/23 06:41:34;;;;;;;;;;;;;;;23.27;96.98;97847.75;5033542;28;20000;-38
2022/05/23 06:43:59;;;;;;;;;;;;;;;23.97;93.16;97833.50;5032579;28;19956;-38
2022/05/23 06:46:24;;;;;;;;;;;;;;;23.73;93.48;97829.81;5030710;28;20025;-38
2022/05/23 06:48:50;;;;;;;;;;;;;;;23.69;95.68;97831.13;5030994;28;20022;-38
2022/05/23 06:51:15;;;;;;;;;;;;;;;24.30;93.91;97820.38;5030560;28;19916;-38
2022/05/23 06:53:40;;;;;;;;;;;;;;;23.82;95.18;97825.44;5032298;28;19920;-38
2022/05/23 06:56:05;;;;;;;;;;;;;;;23.61;97.74;97812.72;5035819;28;19916;-38
2022/05/23 06:58:31;;;;;;;;;;;;;;;23.87;97.10;97811.81;5036366;28;19921;-38
2022/05/23 07:00:56;;;;;;;;;;;;;;;25.03;93.14;97804.47;5036041;28;19920;-38
2022/05/23 07:03:22;;;;;;;;;;;;;;;26.29;83.91;97795.50;5031876;28;20524;-38
2022/05/23 07:14:00;;;;;;;;;;;;;;;26.70;80.08;97771.34;5032140;28;19967;-38
2022/05/23 07:16:26;;;;;;;;;;;;;;;25.75;79.77;97776.28;5030346;28;19917;-38
2022/05/23 07:18:51;;;;;;;;;;;;;;;26.83;77.67;97769.91;5027113;28;20298;-38
2022/05/23 07:21:17;;;;;;;;;;;;;;;27.10;77.67;97776.34;5033681;28;20357;-38
2022/05/23 07:23:43;;;;;;;;;;;;;;;25.84;74.35;97770.78;5031903;28;19921;-38
2022/05/23 07:26:09;;;;;;;;;;;;;;;25.37;83.58;97777.00;5028189;28;19924;-38
2022/05/23 07:28:35;;;;;;;;;;;;;;;25.71;79.38;97759.19;5016955;28;20689;-38
2022/05/23 07:31:00;;;;;;;;;;;;;;;25.56;81.71;97767.00;5034025;28;19917;-38
2022/05/23 07:33:25;;;;;;;;;;;;;;;25.06;79.96;97766.41;5035122;28;20025;-38
2022/05/23 07:35:54;;;;;;;;;;;;;;;26.41;78.83;97748.38;5033956;28;19917;-38
2022/05/23 07:38:19;;;;;;;;;;;;;;;26.18;72.01;97758.97;5016556;28;19958;-38
2022/05/23 07:40:48;;;;;;;;;;;;;;;28.12;71.41;97748.94;5032856;28;20331;-38
2022/05/23 07:43:15;;;;;;;;;;;;;;;28.18;68.02;97750.84;5030595;28;19920;-38
2022/05/23 07:45:40;;;;;;;;;;;;;;;28.84;64.24;97744.34;5034174;28;19917;-38
2022/05/23 07:48:06;;;;;;;;;;;;;;;28.94;62.60;97742.13;5032994;28;19924;-38
2022/05/23 07:50:31;;;;;;;;;;;;;;;29.21;54.89;97726.38;5015322;28;19913;-38
2022/05/23 08:01:08;;;;;;;;;;;;;;;28.63;62.16;97727.53;5033196;28;19924;-38
2022/05/23 08:03:34;;;;;;;;;;;;;;;26.74;66.83;97728.75;5032746;28;19960;-38
2022/05/23 08:05:59;;;;;;;;;;;;;;;28.47;62.08;97725.19;5011028;28;19964;-38
2022/05/23 08:08:26;;;;;;;;;;;;;;;27.64;62.32;97723.06;5034051;28;20546;-38
2022/05/23 08:10:51;;;;;;;;;;;;;;;26.94;67.21;97727.19;5027243;28;19916;-38
2022/05/23 08:13:16;;;;;;;;;;;;;;;26.52;67.85;97730.44;5029531;28;20730;-38
2022/05/23 08:15:41;;;;;;;;;;;;;;;27.64;62.41;97720.41;5028251;28;20367;-38
2022/05/23 08:18:07;;;;;;;;;;;;;;;27.35;64.77;97725.81;5014751;28;19920;-38
2022/05/23 08:20:32;;;;;;;;;;;;;;;28.42;63.01;97709.03;5012078;28;19917;-38
2022/05/23 08:22:59;;;;;;;;;;;;;;;28.52;62.21;97701.59;5026118;28;19928;-38
2022/05/23 08:25:24;;;;;;;;;;;;;;;28.55;62.35;97702.00;5025993;28;19917;-38
2022/05/23 08:27:49;;;;;;;;;;;;;;;27.88;62.19;97700.72;5031495;28;19935;-38
2022/05/23 08:30:15;;;;;;;;;;;;;;;27.09;65.07;97711.28;5031091;28;20429;-38
2022/05/23 08:32:40;;;;;;;;;;;;;;;26.41;70.76;97707.94;5030142;28;19939;-38
2022/05/23 08:35:08;;;;;;;;;;;;;;;28.72;64.45;97685.81;5029732;28;19924;-38
2022/05/23 08:37:33;;;;;;;;;;;;;;;27.72;65.38;97695.69;5029215;28;19916;-38
2022/05/23 08:39:58;;;;;;;;;;;;;;;26.85;70.63;97694.75;5031562;28;19924;-38
2022/05/23 08:42:42;;;;;;;;;;;;;;;27.35;65.94;97699.38;5029806;28;19920;-38
2022/05/23 08:45:15;;;;;;;;;;;;;;;27.32;66.67;97684.72;5030586;28;19924;-38
2022/05/23 08:47:49;;;;;;;;;;;;;;;27.20;68.37;97688.84;5017883;28;19921;-38
2022/05/23 08:50:16;;;;;;;;;;;;;;;28.05;65.48;97684.56;5028640;28;20009;-38
2022/05/23 08:52:41;;;;;;;;;;;;;;;28.51;63.72;97686.69;5028123;28;19923;-38
2022/05/23 08:55:07;;;;;;;;;;;;;;;29.86;60.06;97687.72;5031504;28;19921;-38
2022/05/23 08:57:48;;;;;;;;;;;;;;;27.89;63.09;97691.75;5016803;28;19921;-38
2022/05/23 09:00:14;;;;;;;;;;;;;;;28.64;63.19;97678.81;5028030;28;19960;-38
2022/05/23 09:02:44;;;;;;;;;;;;;;;28.76;59.61;97682.56;5011081;28;20070;-38
2022/05/23 09:05:12;;;;;;;;;;;;;;;29.01;59.76;97676.72;5028873;28;19964;-38
2022/05/23 09:07:42;;;;;;;;;;;;;;;28.46;57.40;97676.66;5030808;28;19952;-38
2022/05/23 09:10:13;;;;;;;;;;;;;;;30.20;58.60;97668.09;5012347;28;19959;-38
2022/05/23 09:12:38;;;;;;;;;;;;;;;29.43;58.07;97672.16;5010783;28;19947;-38
2022/05/23 09:15:04;;;;;;;;;;;;;;;28.84;57.63;97675.44;5032914;28;20473;-38
2022/05/23 09:17:31;;;;;;;;;;;;;;;26.66;66.07;97682.94;5030852;28;19923;-38
2022/05/23 09:20:00;;;;;;;;;;;;;;;27.67;66.12;97680.38;5016869;28;19917;-38
2022/05/23 09:22:43;;;;;;;;;;;;;;;27.63;65.86;97670.38;5028299;28;19953;-38
2022/05/23 09:25:09;;;;;;;;;;;;;;;27.98;65.19;97667.81;5029136;28;19974;-38
2022/05/23 09:27:38;;;;;;;;;;;;;;;28.44;60.73;97664.63;5031361;28;19920;-38
2022/05/23 09:30:04;;;;;;;;;;;;;;;27.82;62.40;97655.66;5011721;28;19965;-38
2022/05/23 09:32:56;;;;;;;;;;;;;;;27.46;65.55;97662.72;5011795;28;20011;-38
2022/05/23 09:35:21;;;;;;;;;;;;;;;28.80;61.15;97655.66;5010719;28;20515;-38
2022/05/23 09:37:48;;;;;;;;;;;;;;;28.01;67.66;97657.69;5033777;28;19920;-38
2022/05/23 09:40:22;;;;;;;;;;;;;;;29.26;63.57;97644.38;5031928;28;19925;-38
2022/05/23 09:48:17;;;;;;;;;;;;;;;26.12;72.37;97633.03;5029038;28;19928;-38
2022/05/23 09:50:43;;;;;;;;;;;;;;;27.46;68.33;97633.63;5018699;28;19917;-38
2022/05/23 09:53:20;;;;;;;;;;;;;;;27.95;69.02;97624.03;5033758;28;19917;-38
2022/05/23 09:55:47;;;;;;;;;;;;;;;28.02;66.58;97619.59;5011081;28;20501;-38
2022/05/23 09:58:12;;;;;;;;;;;;;;;28.27;64.08;97619.94;5012909;28;19947;-38
2022/05/23 10:00:38;;;;;;;;;;;;;;;27.41;63.71;97629.91;5015766;28;19916;-38
2022/05/23 10:03:05;;;;;;;;;;;;;;;28.44;65.07;97623.09;5011064;28;20371;-38
2022/05/23 10:05:32;;;;;;;;;;;;;;;28.94;61.77;97613.13;5013068;28;20289;-38
2022/05/23 10:08:01;;;;;;;;;;;;;;;29.19;60.61;97607.25;5030584;28;20354;-38
2022/05/23 10:10:31;;;;;;;;;;;;;;;27.89;69.08;97612.38;5028752;28;19917;-38
2022/05/23 10:13:15;;;;;;;;;;;;;;;30.53;56.51;97597.31;4996147;28;20528;-38
2022/05/23 10:15:42;;;;;;;;;;;;;;;29.22;62.32;97606.88;5030752;28;19963;-38
2022/05/23 10:18:08;;;;;;;;;;;;;;;28.49;64.98;97601.34;5029037;28;19927;-38
2022/05/23 10:20:40;;;;;;;;;;;;;;;29.03;65.90;97603.13;5034723;28;20258;-38
2022/05/23 10:23:10;;;;;;;;;;;;;;;29.85;58.54;97593.19;5029179;28;20016;-38
2022/05/23 10:25:36;;;;;;;;;;;;;;;29.93;60.19;97595.63;5016524;28;19917;-38
2022/05/23 10:28:05;;;;;;;;;;;;;;;30.77;58.19;97595.78;5032303;28;19948;-38
2022/05/23 10:30:32;;;;;;;;;;;;;;;30.49;58.99;97588.13;5014406;28;19916;-38
2022/05/23 10:33:00;;;;;;;;;;;;;;;31.14;55.86;97590.66;5032737;28;20012;-38
2022/05/23 10:35:31;;;;;;;;;;;;;;;31.76;50.76;97585.47;5033345;28;19917;-38
2022/05/23 10:42:07;;;;;;;;;;;;;;;30.66;56.04;97586.63;5034993;28;19924;-38
2022/05/23 10:43:31;;;;;;;;;;;;;;;29.18;57.94;97579.94;5014453;28;20527;-39
2022/05/23 10:45:59;;;;;;;;;;;;;;;30.35;57.89;97572.25;5010596;28;19921;-38
2022/05/23 10:48:43;;;;;;;;;;;;;;;29.80;60.95;97561.16;5028431;28;19992;-39
2022/05/23 10:51:14;;;;;;;;;;;;;;;27.90;63.12;97566.41;5025258;28;19961;-38
2022/05/23 10:53:59;;;;;;;;;;;;;;;28.06;65.00;97564.47;5024113;28;19916;-38
2022/05/23 10:56:37;;;;;;;;;;;;;;;28.47;63.58;97555.72;5010347;28;19967;-38
2022/05/23 10:59:07;;;;;;;;;;;;;;;28.94;64.62;97551.31;5007980;28;20278;-39
2022/05/23 11:01:41;;;;;;;;;;;;;;;27.93;69.61;97554.63;5025667;28;20002;-38
2022/05/23 11:04:25;;;;;;;;;;;;;;;28.25;67.15;97550.50;5026447;28;19921;-38
2022/05/23 11:06:58;;;;;;;;;;;;;;;27.21;72.87;97545.13;5028869;28;19924;-38
2022/05/23 11:09:36;;;;;;;;;;;;;;;27.69;70.51;97529.44;5011091;28;20522;-38
2022/05/23 11:12:04;;;;;;;;;;;;;;;28.02;68.14;97526.16;5013391;28;19917;-38
2022/05/23 11:14:48;;;;;;;;;;;;;;;28.20;67.01;97523.81;5027435;28;19920;-38
2022/05/23 11:17:13;;;;;;;;;;;;;;;28.86;65.03;97511.78;5026199;28;19912;-38
2022/05/23 11:19:42;;;;;;;;;;;;;;;29.48;61.74;97507.91;5027664;28;19916;-38
2022/05/23 11:22:09;;;;;;;;;;;;;;;29.02;61.76;97499.97;5025955;28;19971;-39
2022/05/23 11:24:38;;;;;;;;;;;;;;;28.77;62.82;97498.72;5011228;28;19917;-39
2022/05/23 11:35:31;;;;;;;;;;;;;;;29.46;63.67;97472.00;5015825;28;19944;-38
2022/05/23 11:38:00;;;;;;;;;;;;;;;28.96;63.45;97475.09;5029316;28;19916;-38
2022/05/23 11:40:25;;;;;;;;;;;;;;;30.48;58.80;97467.78;5029052;28;20390;-39
2022/05/23 11:42:57;;;;;;;;;;;;;;;29.31;63.13;97464.28;5028870;28;19920;-39
2022/05/23 11:48:34;;;;;;;;;;;;;;;30.02;62.39;97464.31;5030297;28;20052;-39
2022/05/23 11:51:18;;;;;;;;;;;;;;;30.05;61.16;97447.13;5027674;28;20445;-39
2022/05/23 11:53:45;;;;;;;;;;;;;;;32.01;53.94;97434.47;5027133;28;19921;-38
2022/05/23 11:56:11;;;;;;;;;;;;;;;32.74;50.32;97435.31;5009273;28;19963;-39
2022/05/23 11:58:39;;;;;;;;;;;;;;;32.53;53.75;97431.31;5030132;28;20489;-39
2022/05/23 12:01:07;;;;;;;;;;;;;;;31.41;56.67;97415.72;5029350;28;19916;-39
2022/05/23 12:03:50;;;;;;;;;;;;;;;30.23;60.95;97417.22;5029347;28;19928;-39
2022/05/23 12:06:15;;;;;;;;;;;;;;;30.68;59.05;97408.34;5030772;28;19965;-39
2022/05/23 12:08:41;;;;;;;;;;;;;;;31.49;56.58;97404.78;5026110;28;19920;-39
2022/05/23 12:11:21;;;;;;;;;;;;;;;31.21;57.62;97397.28;5011013;28;20554;-39
2022/05/23 12:13:49;;;;;;;;;;;;;;;30.19;61.60;97394.78;5021725;28;19921;-39
2022/05/23 12:16:47;;;;;;;;;;;;;;;30.22;62.91;97399.66;5033143;28;19920;-38
2022/05/23 12:19:12;;;;;;;;;;;;;;;31.19;59.22;97384.19;4993730;28;20035;-39
2022/05/23 12:21:42;;;;;;;;;;;;;;;31.00;58.93;97391.34;5030197;28;20907;-39
2022/05/23 12:24:23;;;;;;;;;;;;;;;30.96;60.35;97394.66;5012827;28;20867;-40
2022/05/23 12:26:52;;;;;;;;;;;;;;;31.22;57.54;97386.41;5033966;28;20646;-39
2022/05/23 12:29:31;;;;;;;;;;;;;;;31.65;60.59;97388.19;5012158;28;20034;-39
2022/05/23 12:32:07;;;;;;;;;;;;;;;30.01;65.16;97388.34;5033189;28;19974;-39
2022/05/23 12:34:33;;;;;;;;;;;;;;;29.67;67.72;97378.88;5014563;28;19916;-39
2022/05/23 12:36:58;;;;;;;;;;;;;;;29.70;68.39;97373.19;5030706;28;19993;-39
2022/05/23 12:39:42;;;;;;;;;;;;;;;30.57;64.30;97370.03;5031300;28;19986;-39
2022/05/23 12:42:12;;;;;;;;;;;;;;;30.15;66.77;97367.03;5027306;28;19932;-39
2022/05/23 12:44:43;;;;;;;;;;;;;;;30.49;69.36;97372.94;5029525;28;19921;-39
2022/05/23 12:47:16;;;;;;;;;;;;;;;31.96;61.20;97358.94;5029975;28;19927;-39
2022/05/23 12:49:41;;;;;;;;;;;;;;;32.20;59.75;97358.00;5032999;28;19917;-39
2022/05/23 12:52:26;;;;;;;;;;;;;;;32.49;58.83;97352.84;5030942;28;19921;-39
2022/05/23 12:54:54;;;;;;;;;;;;;;;31.67;63.23;97348.88;5011348;28;19913;-39
2022/05/23 12:57:39;;;;;;;;;;;;;;;31.22;63.86;97346.50;5033721;28;20839;-39
2022/05/23 13:00:05;;;;;;;;;;;;;;;30.49;65.25;97351.69;5031852;28;19913;-39
2022/05/23 13:02:30;;;;;;;;;;;;;;;32.46;57.71;97346.13;5033323;28;20612;-39
2022/05/23 13:05:00;;;;;;;;;;;;;;;31.15;59.67;97340.47;5037795;28;20089;-39
2022/05/23 13:07:44;;;;;;;;;;;;;;;31.53;63.12;97338.63;5017627;28;20732;-39
2022/05/23 13:10:10;;;;;;;;;;;;;;;32.39;58.90;97333.94;5035453;28;19956;-39
2022/05/23 13:12:41;;;;;;;;;;;;;;;31.09;64.04;97344.03;5035847;28;19995;-39
2022/05/23 13:15:07;;;;;;;;;;;;;;;32.52;57.71;97335.59;5011427;28;20024;-39
2022/05/23 13:17:39;;;;;;;;;;;;;;;31.13;65.20;97339.84;5031875;28;19957;-39
2022/05/23 13:22:58;;;;;;;;;;;;;;;32.33;63.38;97330.34;5027043;28;19928;-39
2022/05/23 13:25:27;;;;;;;;;;;;;;;31.40;60.88;97320.94;5009931;28;20384;-39
2022/05/23 13:27:58;;;;;;;;;;;;;;;33.17;57.68;97316.00;5033641;28;19921;-39
2022/05/23 13:30:25;;;;;;;;;;;;;;;33.53;55.51;97317.53;5032765;28;20031;-39
2022/05/23 13:33:20;;;;;;;;;;;;;;;31.81;62.25;97304.25;5012524;28;19953;-39
2022/05/23 13:35:46;;;;;;;;;;;;;;;33.07;61.36;97305.94;5007961;28;20010;-39
2022/05/23 13:38:17;;;;;;;;;;;;;;;33.67;55.78;97316.22;5005836;28;20015;-39
2022/05/23 13:40:43;;;;;;;;;;;;;;;32.75;58.13;97311.63;5027470;28;19932;-39
2022/05/23 13:43:12;;;;;;;;;;;;;;;34.21;50.36;97302.47;5029776;28;19928;-39
2022/05/23 13:45:39;;;;;;;;;;;;;;;33.61;54.96;97313.69;5030425;28;19920;-39
2022/05/23 13:48:16;;;;;;;;;;;;;;;34.36;50.54;97301.94;5028350;28;19971;-39
2022/05/23 13:50:43;;;;;;;;;;;;;;;34.77;49.27;97303.34;5011148;28;19926;-39